createdAt,value
2023-05-14T09:19:34.900Z,9.65
2023-05-14T09:21:37.270Z,7.20
2023-05-14T09:23:44.102Z,10.52
2023-05-14T09:25:48.845Z,19.20
2023-05-14T09:27:51.279Z,7.10
2023-05-14T09:29:53.192Z,4.55
2023-05-14T09:31:56.693Z,8.15
2023-05-14T09:33:59.787Z,7.32
2023-05-14T09:36:02.887Z,9.65
2023-05-14T09:38:04.796Z,3.67
2023-05-14T09:40:09.208Z,5.70
2023-05-14T09:42:11.203Z,4.05
2023-05-14T09:46:15.775Z,5.15
2023-05-14T09:48:17.732Z,4.25
2023-05-14T09:52:24.426Z,6.50
2023-05-14T09:54:27.582Z,5.03
2023-05-14T09:56:29.589Z,4.00
2023-05-14T10:00:34.230Z,4.13
2023-05-14T10:02:38.289Z,4.35
2023-05-14T10:04:41.448Z,9.10
2023-05-14T10:06:47.581Z,6.43
2023-05-14T10:08:53.963Z,8.40
2023-05-14T10:10:57.745Z,5.40
2023-05-14T10:13:04.831Z,7.30
2023-05-14T10:15:29.947Z,4.03
2023-05-14T10:17:34.492Z,5.25
2023-05-14T10:19:40.406Z,6.93
2023-05-14T10:21:45.907Z,4.68
2023-05-14T10:23:49.228Z,3.72
2023-05-14T10:25:51.636Z,4.53
2023-05-14T10:27:54.524Z,4.75
2023-05-14T10:29:56.826Z,3.63
2023-05-14T10:31:58.744Z,7.53
2023-05-14T10:36:07.589Z,6.97
2023-05-14T10:38:09.577Z,9.23
2023-05-14T10:42:27.276Z,5.00
2023-05-14T10:44:29.706Z,4.05
2023-05-14T10:46:32.080Z,4.07
2023-05-14T10:48:34.793Z,9.82
2023-05-14T10:50:36.801Z,6.13
2023-05-14T10:54:53.917Z,3.35
2023-05-14T10:56:59.677Z,4.65
2023-05-14T10:59:02.527Z,6.78
2023-05-14T11:01:08.916Z,4.28
2023-05-14T11:03:13.283Z,4.88
2023-05-14T11:05:17.728Z,8.90
2023-05-14T11:07:24.747Z,4.13
2023-05-14T11:09:26.894Z,2.63
2023-05-14T11:11:29.322Z,4.03
2023-05-14T11:13:31.415Z,6.38
2023-05-14T11:15:33.550Z,6.47
2023-05-14T11:17:36.945Z,3.08
2023-05-14T11:19:38.829Z,6.00
2023-05-14T11:21:41.093Z,2.88
2023-05-14T11:23:46.265Z,4.95
2023-05-14T11:25:48.360Z,7.43
2023-05-14T11:27:50.704Z,3.60
2023-05-14T11:29:52.980Z,3.75
2023-05-14T11:31:54.967Z,3.13
2023-05-14T11:35:58.790Z,3.28
2023-05-14T11:38:00.713Z,9.10
2023-05-14T11:42:12.354Z,3.45
2023-05-14T11:44:14.246Z,7.30
2023-05-14T11:46:19.482Z,9.73
2023-05-14T11:48:22.756Z,8.27
2023-05-14T11:50:24.965Z,8.00
2023-05-14T11:52:27.153Z,10.43
2023-05-14T11:58:33.891Z,4.60
2023-05-14T12:00:36.432Z,4.15
2023-05-14T12:02:38.597Z,7.10
2023-05-14T12:04:42.270Z,2.85
2023-05-14T12:06:44.237Z,3.65
2023-05-14T12:10:49.753Z,6.22
2023-05-14T12:14:53.458Z,8.13
2023-05-14T12:16:55.344Z,7.88
2023-05-14T12:19:01.398Z,5.47
2023-05-14T12:21:06.033Z,3.95
2023-05-14T12:23:11.382Z,6.25
2023-05-14T12:25:14.360Z,5.07
2023-05-14T12:27:16.287Z,4.47
2023-05-14T12:29:18.265Z,4.90
2023-05-14T12:33:29.445Z,4.88
2023-05-14T12:35:31.360Z,4.47
2023-05-14T12:37:34.093Z,4.50
2023-05-14T12:39:36.050Z,6.72
2023-05-14T12:43:44.804Z,4.68
2023-05-14T12:45:46.729Z,8.18
2023-05-14T12:49:50.903Z,5.13
2023-05-14T12:52:03.258Z,3.75
2023-05-14T12:54:16.028Z,5.28
2023-05-14T12:56:17.994Z,3.50
2023-05-14T13:00:21.752Z,8.30
2023-05-14T13:02:23.653Z,8.00
2023-05-14T13:04:25.701Z,12.65
2023-05-14T13:06:27.576Z,10.18
2023-05-14T13:08:29.714Z,4.88
2023-05-14T13:10:31.572Z,6.78
2023-05-14T13:12:33.603Z,9.20
2023-05-14T13:14:36.463Z,3.97
2023-05-14T13:16:38.357Z,6.78
2023-05-14T13:20:43.301Z,4.55
2023-05-14T13:22:45.376Z,7.88
2023-05-14T13:26:49.041Z,6.20
2023-05-14T13:31:08.521Z,7.25
2023-05-14T13:33:10.508Z,11.82
2023-05-14T13:37:14.592Z,15.55
2023-05-14T13:41:18.333Z,8.45
2023-05-14T13:43:20.531Z,13.10
2023-05-14T13:45:22.661Z,15.13
2023-05-14T13:47:25.715Z,6.10
2023-05-14T13:49:27.613Z,5.30
2023-05-14T13:51:29.540Z,6.38
2023-05-14T13:53:31.481Z,9.40
2023-05-14T13:55:33.320Z,3.67
2023-05-14T13:57:35.432Z,9.80
2023-05-14T13:59:37.461Z,7.68
2023-05-14T14:01:39.410Z,7.45
2023-05-14T14:03:41.318Z,8.40
2023-05-14T14:05:43.240Z,7.55
2023-05-14T14:07:45.783Z,6.82
2023-05-14T14:09:50.024Z,5.93
2023-05-14T14:11:52.167Z,4.70
2023-05-14T14:13:54.473Z,6.28
2023-05-14T14:15:56.911Z,8.60
2023-05-14T14:17:58.899Z,6.72
2023-05-14T14:20:00.752Z,10.05
2023-05-14T14:22:02.672Z,5.35
2023-05-14T14:24:04.786Z,4.22
2023-05-14T14:26:06.664Z,6.97
2023-05-14T14:28:08.548Z,4.30
2023-05-14T14:30:15.661Z,4.75
2023-05-14T14:32:17.561Z,5.30
2023-05-14T14:34:19.431Z,4.07
2023-05-14T14:36:21.344Z,4.68
2023-05-14T14:38:23.308Z,3.90
2023-05-14T14:40:26.425Z,3.58
2023-05-14T14:42:28.316Z,2.60
2023-05-14T14:44:30.213Z,4.32
2023-05-14T14:46:33.159Z,3.65
2023-05-14T14:48:39.280Z,2.92
2023-05-14T14:50:41.157Z,4.80
2023-05-14T14:54:47.944Z,5.82
2023-05-14T14:56:52.410Z,4.90
2023-05-14T14:58:54.289Z,7.93
2023-05-14T15:00:57.375Z,4.60
2023-05-14T15:02:59.313Z,4.78
2023-05-14T15:05:01.327Z,5.63
2023-05-14T15:07:03.205Z,4.43
2023-05-14T15:09:05.102Z,3.83
2023-05-14T15:11:08.063Z,5.40
2023-05-14T15:13:10.354Z,4.88
2023-05-14T15:15:12.205Z,4.05
2023-05-14T15:19:15.950Z,10.82
2023-05-14T15:21:17.935Z,6.13
2023-05-14T15:23:19.893Z,5.78
2023-05-14T15:25:23.106Z,11.77
2023-05-14T15:27:25.047Z,8.65
2023-05-14T15:31:28.942Z,7.50
2023-05-14T15:33:30.886Z,9.93
2023-05-14T15:35:32.757Z,9.43
2023-05-14T15:37:41.088Z,6.03
2023-05-14T15:39:42.929Z,11.43
2023-05-14T15:41:45.544Z,7.30
2023-05-14T15:43:47.413Z,5.43
2023-05-14T15:45:49.310Z,9.25
2023-05-14T15:47:51.297Z,4.78
2023-05-14T15:49:53.354Z,8.82
2023-05-14T15:51:55.469Z,6.10
2023-05-14T15:53:57.393Z,7.32
2023-05-14T15:55:59.335Z,5.13
2023-05-14T15:58:02.267Z,7.95
2023-05-14T16:00:13.586Z,5.93
2023-05-14T16:02:15.860Z,5.50
2023-05-14T16:04:17.726Z,6.40
2023-05-14T16:06:19.732Z,4.05
2023-05-14T16:08:21.589Z,4.88
2023-05-14T16:10:23.689Z,4.38
2023-05-14T16:12:26.242Z,6.07
2023-05-14T16:14:28.115Z,4.93
2023-05-14T16:16:30.658Z,4.72
2023-05-14T16:18:33.601Z,5.45
2023-05-14T16:20:35.454Z,7.15
2023-05-14T16:22:37.555Z,8.95
2023-05-14T16:24:39.487Z,5.40
2023-05-14T16:26:41.370Z,3.65
2023-05-14T16:28:43.257Z,5.55
2023-05-14T16:30:45.195Z,5.03
2023-05-14T16:32:49.536Z,4.70
2023-05-14T16:34:51.795Z,4.13
2023-05-14T16:36:53.702Z,4.25
2023-05-14T16:39:06.728Z,8.85
2023-05-14T16:41:12.428Z,6.82
2023-05-14T16:43:14.341Z,7.38
2023-05-14T16:45:16.206Z,6.13
2023-05-14T16:47:18.046Z,8.23
2023-05-14T16:51:24.397Z,7.85
2023-05-14T16:53:26.546Z,16.17
2023-05-14T16:55:28.413Z,7.60
2023-05-14T16:57:30.286Z,10.60
2023-05-14T17:01:34.108Z,11.13
2023-05-14T17:03:36.016Z,6.55
2023-05-14T17:05:37.899Z,11.85
2023-05-14T17:09:41.724Z,13.82
2023-05-14T17:11:43.705Z,5.22
2023-05-14T17:15:47.388Z,8.07
2023-05-14T17:17:49.354Z,8.20
2023-05-14T17:19:51.304Z,6.03
2023-05-14T17:21:53.354Z,10.68
2023-05-14T17:25:57.057Z,13.85
2023-05-14T17:30:01.365Z,23.35
2023-05-14T17:32:03.734Z,13.50
2023-05-14T17:34:05.604Z,12.45
2023-05-14T17:36:07.680Z,22.20
2023-05-14T17:38:09.830Z,14.07
2023-05-14T17:40:12.187Z,10.52
2023-05-14T17:42:14.053Z,14.13
2023-05-14T17:44:15.941Z,8.77
2023-05-14T17:46:18.139Z,13.65
2023-05-14T17:48:20.032Z,13.65
2023-05-14T17:50:21.935Z,16.58
2023-05-14T17:54:25.723Z,12.63
2023-05-14T17:58:29.758Z,9.38
2023-05-14T18:00:31.603Z,12.75
2023-05-14T18:02:33.593Z,13.32
2023-05-14T18:06:37.728Z,12.43
2023-05-14T18:08:39.710Z,11.98
2023-05-14T18:10:41.589Z,11.57
2023-05-14T18:12:43.505Z,8.82
2023-05-14T18:14:45.813Z,10.40
2023-05-14T18:16:47.845Z,10.15
2023-05-14T18:20:52.707Z,8.15
2023-05-14T18:22:54.631Z,13.25
2023-05-14T18:24:56.510Z,9.60
2023-05-14T18:26:59.295Z,9.13
2023-05-14T18:29:01.172Z,8.25
2023-05-14T18:31:04.355Z,9.32
2023-05-14T18:33:06.550Z,12.93
2023-05-14T18:35:08.967Z,11.85
2023-05-14T18:37:10.915Z,15.05
2023-05-14T18:39:12.861Z,12.63
2023-05-14T18:43:18.476Z,15.38
2023-05-14T18:45:21.672Z,20.00
2023-05-14T18:47:23.794Z,19.20
2023-05-14T18:49:25.926Z,23.70
2023-05-14T18:53:29.761Z,23.58
2023-05-14T18:57:33.856Z,24.80
2023-05-14T18:59:35.721Z,58.25
2023-05-14T19:01:37.659Z,89.22
2023-05-14T19:05:43.674Z,65.70
2023-05-14T19:07:48.085Z,92.00
2023-05-14T19:09:50.073Z,77.45
2023-05-14T19:11:51.908Z,77.90
2023-05-14T19:13:53.827Z,65.82
2023-05-14T19:15:56.106Z,61.35
2023-05-14T19:17:58.069Z,48.63
2023-05-14T19:20:00.047Z,34.80
2023-05-14T19:22:01.997Z,36.05
2023-05-14T19:24:04.282Z,39.55
2023-05-14T19:26:07.249Z,42.67
2023-05-14T19:28:09.213Z,42.65
2023-05-14T19:30:11.695Z,41.70
2023-05-14T19:32:13.541Z,37.58
2023-05-14T19:34:15.432Z,36.15
2023-05-14T19:36:17.302Z,29.73
2023-05-14T19:38:19.827Z,33.42
2023-05-14T19:40:21.799Z,37.50
2023-05-14T19:42:24.885Z,28.80
2023-05-14T19:44:26.939Z,27.67
2023-05-14T19:46:29.051Z,31.83
2023-05-14T19:48:31.404Z,21.27
2023-05-14T19:50:33.616Z,31.48
2023-05-14T19:52:35.542Z,32.72
2023-05-14T19:54:37.405Z,40.25
2023-05-14T19:56:39.290Z,35.40
2023-05-14T19:58:41.239Z,38.60
2023-05-14T20:00:43.294Z,36.75
2023-05-14T20:04:47.756Z,31.38
2023-05-14T20:08:51.644Z,42.65
2023-05-14T20:12:55.461Z,36.47
2023-05-14T20:14:57.359Z,47.78
2023-05-14T20:17:00.051Z,42.50
2023-05-14T20:19:02.318Z,45.67
2023-05-14T20:21:04.363Z,39.40
2023-05-14T20:23:06.564Z,35.17
2023-05-14T20:25:09.006Z,42.03
2023-05-14T20:27:11.920Z,40.53
2023-05-14T20:29:14.551Z,42.35
2023-05-14T20:31:16.546Z,39.03
2023-05-14T20:33:18.436Z,41.45
2023-05-14T20:35:20.385Z,52.72
2023-05-14T20:37:24.072Z,56.83
2023-05-14T20:39:26.062Z,52.28
2023-05-14T20:41:27.940Z,49.50
2023-05-14T20:43:29.906Z,69.55
2023-05-14T20:45:31.970Z,57.78
2023-05-14T20:49:36.264Z,55.45
2023-05-14T20:51:38.218Z,57.25
2023-05-14T20:53:40.225Z,55.17
2023-05-14T20:57:44.236Z,50.38
2023-05-14T20:59:46.614Z,47.10
2023-05-14T21:01:48.530Z,43.60
2023-05-14T21:03:50.604Z,46.72
2023-05-14T21:05:52.905Z,39.20
2023-05-14T21:07:54.818Z,34.63
2023-05-14T21:09:56.656Z,28.65
2023-05-14T21:11:58.549Z,38.78
2023-05-14T21:14:00.962Z,28.65
2023-05-14T21:16:03.265Z,25.38
2023-05-14T21:18:05.504Z,27.50
2023-05-14T21:20:10.390Z,39.28
2023-05-14T21:22:13.444Z,54.33
2023-05-14T21:24:16.877Z,62.45
2023-05-14T21:26:21.696Z,60.72
2023-05-14T21:28:23.619Z,45.38
2023-05-14T21:30:25.589Z,36.33
2023-05-14T21:32:27.737Z,32.95
2023-05-14T21:34:31.256Z,25.02
2023-05-14T21:36:34.060Z,32.35
2023-05-14T21:38:36.409Z,26.30
2023-05-14T21:40:38.293Z,26.95
2023-05-14T21:42:40.879Z,22.23
2023-05-14T21:44:42.775Z,24.67
2023-05-14T21:46:44.713Z,17.25
2023-05-14T21:48:46.773Z,22.38
2023-05-14T21:50:49.009Z,23.70
2023-05-14T21:52:51.347Z,18.48
2023-05-14T21:54:53.333Z,37.65
2023-05-14T21:56:55.260Z,23.33
2023-05-14T21:58:57.287Z,19.70
2023-05-14T22:03:01.164Z,25.67
2023-05-14T22:05:03.578Z,34.65
2023-05-14T22:07:05.535Z,30.48
2023-05-14T22:09:07.414Z,32.08
2023-05-14T22:11:09.296Z,25.88
2023-05-14T22:13:11.234Z,30.42
2023-05-14T22:15:13.427Z,27.95
2023-05-14T22:17:15.348Z,28.50
2023-05-14T22:19:17.308Z,25.90
2023-05-14T22:23:21.135Z,34.65
2023-05-14T22:25:23.313Z,37.35
2023-05-14T22:27:25.271Z,33.83
2023-05-14T22:29:27.143Z,22.45
2023-05-14T22:31:31.141Z,24.30
2023-05-14T22:33:33.309Z,41.08
2023-05-14T22:37:37.205Z,32.17
2023-05-14T22:43:43.663Z,30.42
2023-05-14T22:45:45.624Z,25.30
2023-05-14T22:47:47.506Z,27.77
2023-05-14T22:49:49.425Z,30.00
2023-05-14T22:51:54.393Z,30.58
2023-05-14T22:53:56.241Z,27.27
2023-05-14T22:55:58.104Z,23.98
2023-05-14T22:58:00.081Z,20.23
2023-05-14T23:02:04.185Z,21.20
2023-05-14T23:06:08.030Z,22.50
2023-05-14T23:08:10.859Z,22.00
2023-05-14T23:10:12.756Z,23.33
2023-05-14T23:12:14.670Z,26.60
2023-05-14T23:14:18.028Z,19.20
2023-05-14T23:16:20.644Z,23.58
2023-05-14T23:18:24.054Z,22.73
2023-05-14T23:20:27.092Z,27.67
2023-05-14T23:22:28.920Z,21.88
2023-05-14T23:24:30.844Z,22.58
2023-05-14T23:26:33.088Z,15.75
2023-05-14T23:28:34.956Z,14.80
2023-05-14T23:30:36.789Z,19.10
2023-05-14T23:32:38.733Z,23.50
2023-05-14T23:34:40.687Z,18.17
2023-05-14T23:36:42.723Z,12.68
2023-05-14T23:40:46.456Z,15.30
2023-05-14T23:42:48.337Z,23.15
2023-05-14T23:44:50.288Z,17.38
2023-05-14T23:46:52.136Z,14.65
2023-05-14T23:48:57.020Z,17.60
2023-05-14T23:50:58.982Z,22.50
2023-05-14T23:53:00.836Z,15.25
2023-05-14T23:55:04.367Z,15.88
2023-05-14T23:57:06.498Z,18.75
